Time;durP1;ratioP1;P1;durP2;ratioP2;P2;SDS_P1;SDS_P2;PMS_P1;PMS_P2;Temp;Humidity;BMP_temperature;BMP_pressure;BME280_temperature;BME280_humidity;BME280_pressure;Samples;Min_cycle;Max_cycle;Signal;HPM_P1;HPM_P2
2022/08/26 00:01:01;;;;;;;179.18;10.98;;;;;;;20.37;99.77;99825.57;1747627;81;21030;-61
2022/08/26 00:03:28;;;;;;;182.62;11.28;;;;;;;20.35;99.87;99826.52;1740001;82;20930;-62
2022/08/26 00:05:55;;;;;;;104.92;9.30;;;;;;;20.39;99.86;99823.60;1745895;81;21508;-61
2022/08/26 00:08:23;;;;;;;210.82;11.50;;;;;;;20.36;99.91;99818.08;1742869;81;20991;-61
2022/08/26 00:10:49;;;;;;;;;;;;;;;20.31;99.74;99825.13;1681351;84;21030;-61
2022/08/26 00:13:17;;;;;;;154.23;10.72;;;;;;;20.26;100.00;99823.34;1697720;82;21880;-61
2022/08/26 00:15:45;;;;;;;115.90;9.15;;;;;;;20.26;100.00;99819.86;1708830;82;21052;-61
2022/08/26 00:18:14;;;;;;;79.30;8.83;;;;;;;20.23;100.00;99811.69;1708858;82;21518;-61
2022/08/26 00:20:41;;;;;;;188.95;10.85;;;;;;;20.22;100.00;99810.02;1693942;82;20900;-61
2022/08/26 00:23:07;;;;;;;131.63;10.13;;;;;;;20.22;100.00;99813.99;1698735;82;20956;-61
2022/08/26 00:25:34;;;;;;;206.65;11.12;;;;;;;20.24;100.00;99807.22;1706865;82;21031;-61
2022/08/26 00:28:01;;;;;;;107.35;9.85;;;;;;;20.22;100.00;99808.69;1709166;82;20898;-61
2022/08/26 00:30:30;;;;;;;169.02;12.18;;;;;;;20.20;100.00;99804.00;1706655;82;21643;-62
2022/08/26 00:32:57;;;;;;;168.20;10.93;;;;;;;20.18;100.00;99808.59;1705369;82;20962;-61
2022/08/26 00:35:25;;;;;;;177.93;11.83;;;;;;;20.15;100.00;99800.90;1702937;84;21097;-61
2022/08/26 00:37:52;;;;;;;154.40;10.13;;;;;;;20.14;100.00;99809.84;1706371;83;21110;-61
2022/08/26 00:40:24;;;;;;;277.68;12.80;;;;;;;20.16;100.00;99803.89;1704793;83;21013;-61
2022/08/26 00:42:51;;;;;;;168.45;10.05;;;;;;;20.20;100.00;99809.30;1708908;82;20914;-61
2022/08/26 00:45:18;;;;;;;222.85;10.70;;;;;;;20.24;100.00;99812.03;1709052;84;21459;-62
2022/08/26 00:47:51;;;;;;;;;;;;;;;20.24;100.00;99813.35;1709270;82;21114;-62
2022/08/26 00:50:22;;;;;;;90.03;8.23;;;;;;;20.27;100.00;99811.76;1707502;83;21221;-61
2022/08/26 00:52:51;;;;;;;106.55;9.78;;;;;;;20.27;100.00;99807.78;1707368;84;20949;-62
2022/08/26 00:55:35;;;;;;;93.00;9.63;;;;;;;20.32;100.00;99810.05;1708868;84;20966;-61
2022/08/26 00:58:02;;;;;;;163.15;11.03;;;;;;;20.35;100.00;99803.15;1703848;84;20902;-62
2022/08/26 01:00:31;;;;;;;69.77;9.55;;;;;;;20.39;100.00;99806.36;1699785;84;21001;-62
2022/08/26 01:03:01;;;;;;;150.15;10.20;;;;;;;20.35;100.00;99802.66;1709086;82;21934;-61
2022/08/26 01:05:28;;;;;;;127.25;10.00;;;;;;;20.37;100.00;99804.36;1701487;83;20883;-62
2022/08/26 01:07:54;;;;;;;77.67;8.50;;;;;;;20.40;100.00;99802.27;1708544;83;20930;-61
2022/08/26 01:10:27;;;;;;;168.90;10.75;;;;;;;20.43;100.00;99800.67;1705793;83;20930;-62
2022/08/26 01:13:04;;;;;;;90.32;9.45;;;;;;;20.45;100.00;99799.23;1675873;84;21582;-61
2022/08/26 01:15:36;;;;;;;81.70;8.45;;;;;;;20.47;100.00;99794.61;1663435;84;21176;-62
2022/08/26 01:18:05;;;;;;;109.03;8.70;;;;;;;20.52;100.00;99798.53;1692001;84;20974;-62
2022/08/26 01:23:31;;;;;;;157.93;9.58;;;;;;;20.57;100.00;99795.52;1857997;75;22743;-61
2022/08/26 01:26:03;;;;;;;151.60;10.28;;;;;;;20.54;100.00;99799.77;1836829;77;20962;-62
2022/08/26 01:28:33;;;;;;;161.90;9.70;;;;;;;20.55;100.00;99800.11;1842125;77;21081;-62
2022/08/26 01:31:03;;;;;;;167.25;9.95;;;;;;;20.53;100.00;99791.48;1838997;77;20935;-62
2022/08/26 01:33:35;;;;;;;147.00;9.30;;;;;;;20.52;100.00;99797.70;1841278;77;20903;-62
2022/08/26 01:36:02;;;;;;;168.62;9.43;;;;;;;20.54;100.00;99795.80;1809098;77;21036;-62
2022/08/26 01:38:30;;;;;;;70.92;8.10;;;;;;;20.53;100.00;99791.48;1841571;76;20931;-62
2022/08/26 01:40:56;;;;;;;;;;;;;;;20.53;100.00;99791.48;1839616;77;21310;-62
2022/08/26 01:43:27;;;;;;;100.00;9.20;;;;;;;20.53;100.00;99786.17;1843052;76;20179;-62
2022/08/26 01:45:55;;;;;;;153.95;9.65;;;;;;;20.46;100.00;99784.98;1839960;77;20895;-62
2022/08/26 01:48:27;;;;;;;112.05;9.33;;;;;;;20.45;100.00;99789.45;1837173;76;20965;-62
2022/08/26 01:50:54;;;;;;;119.10;8.35;;;;;;;20.43;100.00;99783.44;1839856;77;21052;-62
2022/08/26 01:53:23;;;;;;;156.60;9.13;;;;;;;20.47;100.00;99787.98;1838583;76;22317;-62
2022/08/26 01:55:54;;;;;;;61.40;7.62;;;;;;;20.48;100.00;99772.44;1839984;76;21532;-62
2022/08/26 01:58:29;;;;;;;112.85;7.85;;;;;;;20.49;100.00;99779.41;1839491;76;21038;-62
2022/08/26 02:00:56;;;;;;;80.92;7.80;;;;;;;20.48;100.00;99785.20;1837410;76;21044;-62
2022/08/26 02:03:25;;;;;;;122.53;8.48;;;;;;;20.50;100.00;99787.70;1839064;77;21565;-62
2022/08/26 02:05:59;;;;;;;91.85;7.58;;;;;;;20.54;100.00;99785.19;1844913;76;21845;-62
2022/08/26 02:08:32;;;;;;;68.07;8.13;;;;;;;20.58;100.00;99778.62;1839819;77;21076;-61
2022/08/26 02:10:58;;;;;;;50.83;6.70;;;;;;;20.55;100.00;99775.75;1838153;77;21558;-62
2022/08/26 02:13:29;;;;;;;63.65;7.35;;;;;;;20.55;100.00;99774.91;1839663;77;20953;-62
2022/08/26 02:15:57;;;;;;;50.73;7.12;;;;;;;20.52;100.00;99771.17;1838291;76;21039;-61
2022/08/26 02:18:27;;;;;;;58.48;7.78;;;;;;;20.50;100.00;99773.11;1846041;77;21888;-61
2022/08/26 02:20:55;;;;;;;26.93;7.00;;;;;;;20.46;100.00;99771.72;1840865;76;21067;-62
2022/08/26 02:23:23;;;;;;;47.40;8.35;;;;;;;20.40;100.00;99773.59;1842124;76;20994;-62
2022/08/26 02:26:00;;;;;;;68.52;7.55;;;;;;;20.39;100.00;99773.22;1839095;77;21045;-62
2022/08/26 02:28:32;;;;;;;68.28;7.10;;;;;;;20.37;100.00;99769.39;1841323;77;21041;-61
2022/08/26 02:30:59;;;;;;;34.10;6.47;;;;;;;20.35;100.00;99769.52;1839430;77;22429;-62
2022/08/26 02:33:28;;;;;;;46.53;6.83;;;;;;;20.39;100.00;99762.61;1835615;77;20991;-62
2022/08/26 02:35:55;;;;;;;56.85;6.55;;;;;;;20.37;100.00;99769.89;1836016;77;21742;-62
2022/08/26 02:38:22;;;;;;;77.45;6.28;;;;;;;20.32;100.00;99760.50;1843050;76;21001;-62
2022/08/26 02:40:49;;;;;;;59.00;5.50;;;;;;;20.32;100.00;99767.13;1840096;76;20930;-62
2022/08/26 02:43:16;;;;;;;127.72;6.40;;;;;;;20.31;100.00;99766.79;1839204;76;21130;-62
2022/08/26 02:45:43;;;;;;;59.25;5.33;;;;;;;20.30;100.00;99762.93;1838328;77;20971;-62
2022/08/26 02:48:14;;;;;;;93.22;5.92;;;;;;;20.32;100.00;99760.50;1844656;77;20967;-62
2022/08/26 02:50:41;;;;;;;133.82;6.00;;;;;;;20.29;100.00;99762.09;1839313;77;21017;-62
2022/08/26 02:53:08;;;;;;;71.17;5.05;;;;;;;20.33;100.00;99759.55;1842526;76;20887;-62
2022/08/26 02:55:35;;;;;;;149.35;6.60;;;;;;;20.34;100.00;99753.27;1841892;76;21124;-62
2022/08/26 02:58:02;;;;;;;;;;;;;;;20.33;100.00;99754.25;1841241;77;20900;-62
2022/08/26 03:00:30;;;;;;;51.92;4.85;;;;;;;20.34;100.00;99752.42;1841783;76;20146;-62
2022/08/26 03:02:58;;;;;;;181.57;6.80;;;;;;;20.30;100.00;99751.83;1843124;76;20962;-62
2022/08/26 03:05:25;;;;;;;188.47;6.60;;;;;;;20.37;100.00;99739.39;1839161;76;21606;-62
2022/08/26 03:07:52;;;;;;;;;;;;;;;20.42;100.00;99741.16;1841743;77;21166;-62
2022/08/26 03:10:19;;;;;;;97.15;5.42;;;;;;;20.43;100.00;99739.67;1843316;76;20152;-63
2022/08/26 03:12:47;;;;;;;132.00;5.75;;;;;;;20.41;100.00;99736.81;1837590;77;20893;-62
2022/08/26 03:15:17;;;;;;;131.55;6.17;;;;;;;20.38;100.00;99739.73;1839940;77;21131;-62
2022/08/26 03:17:46;;;;;;;225.87;7.00;;;;;;;20.44;100.00;99740.52;1837810;76;20933;-62
2022/08/26 03:20:14;;;;;;;51.85;4.08;;;;;;;20.46;100.00;99733.27;1842401;76;21249;-62
2022/08/26 03:22:41;;;;;;;148.40;6.70;;;;;;;20.50;100.00;99733.33;1840526;76;20972;-62
2022/08/26 03:25:10;;;;;;;;;;;;;;;20.53;100.00;99729.14;1841998;76;20916;-62
2022/08/26 03:27:37;;;;;;;112.30;5.45;;;;;;;20.57;100.00;99721.25;1835577;76;20203;-62
2022/08/26 03:32:51;;;;;;;204.40;6.53;;;;;;;20.57;100.00;99729.20;1834944;77;21128;-62
2022/08/26 03:35:18;;;;;;;173.20;6.35;;;;;;;20.54;100.00;99734.30;1837163;77;20881;-62
2022/08/26 03:37:45;;;;;;;182.75;6.40;;;;;;;20.55;100.00;99728.50;1845331;77;21040;-62
2022/08/26 03:40:12;;;;;;;183.95;7.35;;;;;;;20.58;100.00;99725.56;1838723;76;20914;-63
2022/08/26 03:42:40;;;;;;;167.47;6.95;;;;;;;20.59;100.00;99719.31;1838101;77;20920;-62
2022/08/26 03:45:10;;;;;;;50.45;4.67;;;;;;;20.61;100.00;99727.11;1838153;76;21472;-62
2022/08/26 03:47:39;;;;;;;120.05;5.62;;;;;;;20.64;100.00;99727.70;1843178;77;20903;-62
2022/08/26 03:50:09;;;;;;;218.27;8.05;;;;;;;20.69;100.00;99726.78;1841776;76;21629;-63
2022/08/26 03:52:36;;;;;;;165.80;6.22;;;;;;;20.75;100.00;99730.70;1835292;77;20997;-62
2022/08/26 03:55:06;;;;;;;192.65;7.15;;;;;;;20.75;100.00;99724.92;1839929;76;21522;-62
2022/08/26 03:57:33;;;;;;;219.00;6.90;;;;;;;20.79;100.00;99728.97;1843843;76;21047;-62
2022/08/26 04:00:00;;;;;;;143.07;6.50;;;;;;;20.83;100.00;99728.69;1838139;77;20987;-62
2022/08/26 04:02:27;;;;;;;89.70;5.42;;;;;;;20.84;100.00;99725.91;1837392;76;20963;-62
2022/08/26 04:04:53;;;;;;;138.50;5.97;;;;;;;20.89;100.00;99723.66;1844774;76;20970;-62
2022/08/26 04:07:20;;;;;;;167.95;7.50;;;;;;;20.89;100.00;99722.82;1844777;76;22300;-62
2022/08/26 04:09:47;;;;;;;123.97;6.20;;;;;;;20.87;100.00;99722.14;1842695;76;21068;-62
2022/08/26 04:12:14;;;;;;;106.58;5.65;;;;;;;20.86;100.00;99731.06;1842170;77;21022;-62
2022/08/26 04:14:41;;;;;;;114.52;7.08;;;;;;;20.89;100.00;99730.78;1838764;77;20978;-62
2022/08/26 04:17:07;;;;;;;96.25;6.05;;;;;;;20.89;100.00;99730.29;1842533;76;20983;-62
2022/08/26 04:19:35;;;;;;;50.43;5.75;;;;;;;20.85;100.00;99738.19;1836861;77;21060;-62
2022/08/26 04:22:02;;;;;;;147.95;7.40;;;;;;;20.74;100.00;99739.15;1837309;77;21049;-62
2022/08/26 04:24:29;;;;;;;82.65;5.83;;;;;;;20.77;100.00;99728.26;1840762;76;21011;-62
2022/08/26 04:26:55;;;;;;;78.20;5.67;;;;;;;20.85;100.00;99730.72;1797030;78;20991;-62
2022/08/26 04:29:25;;;;;;;102.92;6.10;;;;;;;20.73;100.00;99732.17;1766761;79;21607;-63
2022/08/26 04:31:54;;;;;;;127.67;6.42;;;;;;;20.82;100.00;99733.16;1794936;78;21012;-62
2022/08/26 04:34:23;;;;;;;111.88;6.37;;;;;;;20.86;100.00;99733.72;1792015;79;21958;-62
2022/08/26 04:36:51;;;;;;;158.20;7.28;;;;;;;20.92;100.00;99731.83;1799922;78;21032;-63
2022/08/26 04:39:19;;;;;;;125.78;7.75;;;;;;;20.96;100.00;99734.58;1784425;78;20995;-62
2022/08/26 04:41:48;;;;;;;143.97;7.30;;;;;;;21.00;100.00;99731.98;1838347;77;21033;-62
2022/08/26 04:44:15;;;;;;;128.15;6.70;;;;;;;21.00;100.00;99733.30;1838799;77;21161;-63
2022/08/26 04:46:42;;;;;;;182.85;8.63;;;;;;;21.12;100.00;99736.19;1838020;76;21113;-62
2022/08/26 04:49:10;;;;;;;213.97;7.80;;;;;;;21.10;100.00;99739.47;1838858;77;21128;-62
2022/08/26 04:51:37;;;;;;;276.05;9.45;;;;;;;21.14;100.00;99740.85;1842503;77;21001;-62
2022/08/26 04:54:06;;;;;;;171.90;7.90;;;;;;;21.11;100.00;99733.17;1839341;77;21057;-63
2022/08/26 04:56:37;;;;;;;222.07;9.13;;;;;;;21.13;100.00;99732.55;1809985;77;21084;-62
2022/08/26 04:59:08;;;;;;;119.42;7.42;;;;;;;21.17;100.00;99735.29;1838503;76;21017;-62
2022/08/26 05:01:35;;;;;;;23.62;5.65;;;;;;;21.26;100.00;99733.61;1837987;77;20983;-62
2022/08/26 05:04:23;;;;;;;114.22;6.12;;;;;;;21.31;100.00;99738.47;1840438;76;21527;-62
2022/08/26 05:06:50;;;;;;;132.35;7.05;;;;;;;21.29;100.00;99732.48;1678238;83;21083;-62
2022/08/26 05:09:20;;;;;;;;;;;;;;;21.30;100.00;99727.52;1700903;83;20989;-62
2022/08/26 05:11:48;;;;;;;94.40;6.17;;;;;;;21.31;100.00;99733.16;1697132;82;21224;-63
2022/08/26 05:14:15;;;;;;;92.85;6.58;;;;;;;21.31;100.00;99729.18;1697929;82;21004;-62
2022/08/26 05:16:41;;;;;;;;;;;;;;;21.39;100.00;99728.84;1689222;83;22186;-63
2022/08/26 05:19:08;;;;;;;91.30;6.85;;;;;;;21.47;100.00;99729.48;1699548;82;20181;-63
2022/08/26 05:21:37;;;;;;;93.03;6.78;;;;;;;21.53;100.00;99724.91;1701409;82;21004;-63
2022/08/26 05:24:05;;;;;;;143.07;8.08;;;;;;;21.60;100.00;99731.34;1706887;82;21141;-62
2022/08/26 05:26:34;;;;;;;57.88;5.28;;;;;;;21.60;100.00;99734.00;1706417;82;21123;-62
2022/08/26 05:29:04;;;;;;;75.78;6.37;;;;;;;21.72;100.00;99731.19;1705603;82;20977;-63
2022/08/26 05:31:33;;;;;;;61.48;6.42;;;;;;;21.81;100.00;99732.97;1701998;82;21063;-63
2022/08/26 05:34:03;;;;;;;100.07;6.72;;;;;;;21.93;100.00;99735.81;1706478;84;21656;-63
2022/08/26 05:36:33;;;;;;;46.53;6.20;;;;;;;21.99;100.00;99736.56;1703682;84;21117;-62
2022/08/26 05:39:01;;;;;;;73.52;6.58;;;;;;;22.06;100.00;99737.63;1703469;82;21562;-63
2022/08/26 05:41:32;;;;;;;25.88;6.03;;;;;;;22.01;100.00;99737.73;1703577;82;20969;-63
2022/08/26 05:44:01;;;;;;;88.17;7.33;;;;;;;22.10;100.00;99739.03;1704999;84;21025;-63
2022/08/26 05:46:28;;;;;;;147.68;8.23;;;;;;;22.29;100.00;99745.27;1703960;84;20992;-62
2022/08/26 05:48:57;;;;;;;43.35;7.15;;;;;;;22.34;100.00;99741.18;1708455;83;21048;-63
2022/08/26 05:51:25;;;;;;;13.03;5.90;;;;;;;22.40;100.00;99739.75;1704585;84;21564;-63
2022/08/26 05:56:29;;;;;;;40.65;7.17;;;;;;;22.59;100.00;99737.98;1834923;76;22792;-63
2022/08/26 05:58:56;;;;;;;44.98;7.75;;;;;;;22.53;100.00;99748.23;1806489;77;20928;-63
2022/08/26 06:01:25;;;;;;;;;;;;;;;22.51;100.00;99743.55;1797044;79;21176;-63
2022/08/26 06:03:56;;;;;;;63.02;8.78;;;;;;;22.55;100.00;99746.27;1804269;77;20087;-62
2022/08/26 06:06:28;;;;;;;53.00;8.15;;;;;;;22.62;100.00;99743.00;1738956;79;20996;-63
2022/08/26 06:08:58;;;;;;;27.77;7.97;;;;;;;22.70;100.00;99740.44;1773436;80;21016;-62
2022/08/26 06:11:28;;;;;;;47.48;8.53;;;;;;;22.81;100.00;99737.56;1767606;80;21014;-62
2022/08/26 06:13:59;;;;;;;32.25;8.18;;;;;;;22.92;100.00;99736.00;1762886;80;21042;-62
2022/08/26 06:16:27;;;;;;;25.80;8.73;;;;;;;23.04;100.00;99731.81;1764671;79;21064;-62
2022/08/26 06:18:54;;;;;;;20.35;8.80;;;;;;;23.11;100.00;99736.89;1766476;79;20958;-62
2022/08/26 06:21:29;;;;;;;21.10;10.03;;;;;;;23.27;100.00;99730.34;1767723;79;21581;-62
2022/08/26 06:26:56;;;;;;;26.10;9.98;;;;;;;23.59;100.00;99735.61;1728801;80;22052;-62
2022/08/26 06:29:25;;;;;;;19.70;10.58;;;;;;;23.68;100.00;99733.33;1737206;80;21032;-62
2022/08/26 06:31:55;;;;;;;16.40;9.48;;;;;;;23.89;100.00;99723.17;1769147;80;21043;-62
2022/08/26 06:34:23;;;;;;;23.30;9.75;;;;;;;24.11;100.00;99728.45;1764610;80;21009;-62
2022/08/26 06:36:50;;;;;;;18.00;9.10;;;;;;;24.23;100.00;99725.50;1764367;79;21139;-61
2022/08/26 06:39:18;;;;;;;14.38;8.30;;;;;;;24.24;100.00;99725.33;1758840;79;21066;-62
2022/08/26 06:41:49;;;;;;;19.98;8.00;;;;;;;24.21;100.00;99728.31;1779469;80;20970;-62
2022/08/26 06:44:17;;;;;;;16.45;7.20;;;;;;;24.11;100.00;99730.26;1776505;80;20998;-62
2022/08/26 06:46:44;;;;;;;15.68;7.10;;;;;;;23.88;100.00;99729.47;1778351;80;20998;-62
2022/08/26 06:49:12;;;;;;;20.95;7.83;;;;;;;23.76;100.00;99728.08;1779131;79;21009;-62
2022/08/26 06:51:41;;;;;;;17.27;7.28;;;;;;;23.79;100.00;99734.43;1776784;79;21108;-62
2022/08/26 06:54:08;;;;;;;13.85;7.47;;;;;;;23.86;100.00;99730.62;1775972;80;20957;-62
2022/08/26 06:56:39;;;;;;;14.83;7.72;;;;;;;23.90;100.00;99731.49;1763641;80;21566;-62
2022/08/26 06:59:08;;;;;;;16.57;7.55;;;;;;;23.96;100.00;99735.86;1762049;80;21012;-62
2022/08/26 07:01:43;;;;;;;22.00;8.80;;;;;;;24.08;100.00;99735.41;1770404;79;21032;-62
2022/08/26 07:04:08;;;;;;;14.00;7.67;;;;;;;24.24;100.00;99731.99;1766918;79;21280;-62
2022/08/26 07:06:39;;;;;;;13.13;7.62;;;;;;;24.42;100.00;99725.72;1765388;79;21076;-63
2022/08/26 07:09:08;;;;;;;22.52;7.60;;;;;;;24.55;100.00;99733.63;1766126;79;21048;-62
2022/08/26 07:11:58;;;;;;;16.05;7.70;;;;;;;24.66;100.00;99728.50;1764990;79;21005;-62
2022/08/26 07:14:25;;;;;;;16.25;8.35;;;;;;;24.71;100.00;99728.84;1715534;82;21660;-62
2022/08/26 07:16:53;;;;;;;20.43;9.53;;;;;;;24.75;100.00;99739.52;1709109;82;21073;-62
2022/08/26 07:19:21;;;;;;;20.95;9.40;;;;;;;24.69;100.00;99738.02;1713651;82;21057;-62
2022/08/26 07:21:48;;;;;;;16.30;9.00;;;;;;;24.61;100.00;99732.66;1733465;80;21534;-62
2022/08/26 07:24:15;;;;;;;22.35;10.32;;;;;;;24.54;99.65;99732.48;1739183;80;21004;-63
2022/08/26 07:26:41;;;;;;;23.40;11.28;;;;;;;24.52;100.00;99734.47;1748903;80;22401;-63
2022/08/26 07:29:08;;;;;;;19.07;10.40;;;;;;;24.51;100.00;99735.48;1731583;80;21278;-62
2022/08/26 07:31:40;;;;;;;20.88;10.82;;;;;;;24.53;100.00;99734.80;1744509;80;21585;-62
2022/08/26 07:34:12;;;;;;;22.32;10.95;;;;;;;24.50;100.00;99728.45;1716331;82;21095;-62
2022/08/26 07:36:39;;;;;;;22.52;10.55;;;;;;;24.56;100.00;99731.33;1713940;82;21014;-63
2022/08/26 07:39:06;;;;;;;25.90;11.15;;;;;;;24.51;99.62;99727.47;1716986;82;21542;-63
2022/08/26 07:41:33;;;;;;;25.77;9.55;;;;;;;24.60;100.00;99723.81;1710194;82;21021;-63
2022/08/26 07:44:07;;;;;;;21.25;10.25;;;;;;;24.86;99.06;99724.20;1709517;82;21002;-63
2022/08/26 07:46:28;;;;;;;23.87;10.75;;;;;;;24.86;99.06;99724.20;1699995;82;21050;-63
2022/08/26 07:48:55;;;;;;;29.52;11.83;;;;;;;24.97;99.24;99729.22;1702011;82;21029;-63
2022/08/26 07:51:24;;;;;;;19.50;9.38;;;;;;;25.26;99.73;99723.92;1730418;81;21577;-63
2022/08/26 07:53:53;;;;;;;29.27;12.00;;;;;;;25.78;100.00;99726.22;1717256;82;21545;-64
2022/08/26 07:56:23;;;;;;;25.65;10.40;;;;;;;26.39;100.00;99726.04;1715656;82;20965;-62
2022/08/26 07:58:53;;;;;;;28.70;10.03;;;;;;;26.74;99.61;99726.54;1728712;82;21064;-64
2022/08/26 08:01:23;;;;;;;34.92;10.82;;;;;;;27.03;99.42;99718.30;1715399;82;21719;-64
2022/08/26 08:03:51;;;;;;;23.18;9.25;;;;;;;27.40;98.27;99718.37;1719994;81;21022;-63
2022/08/26 08:06:23;;;;;;;18.32;8.68;;;;;;;27.70;97.77;99723.80;1724707;82;21075;-64
2022/08/26 08:11:44;;;;;;;32.35;9.53;;;;;;;27.62;95.47;99713.97;1710239;82;21539;-62
2022/08/26 08:14:13;;;;;;;31.33;10.00;;;;;;;27.92;96.71;99713.18;1710441;82;21575;-62
2022/08/26 08:16:40;;;;;;;35.52;10.68;;;;;;;28.29;96.30;99706.36;1706057;82;21077;-62
2022/08/26 08:19:08;;;;;;;31.65;12.73;;;;;;;28.51;95.92;99706.42;1706118;82;21129;-61
2022/08/26 08:21:35;;;;;;;36.35;13.90;;;;;;;28.51;94.39;99705.08;1703486;82;21012;-63
2022/08/26 08:24:03;;;;;;;43.73;15.18;;;;;;;28.66;93.50;99704.55;1666918;83;21634;-62
2022/08/26 08:26:33;;;;;;;44.50;15.88;;;;;;;28.65;92.92;99701.55;1692780;83;21041;-61
2022/08/26 08:29:24;;;;;;;42.75;16.40;;;;;;;28.71;92.88;99702.64;1666748;84;32428;-64
2022/08/26 08:31:53;;;;;;;45.30;16.62;;;;;;;28.88;92.99;99704.05;1591818;88;21151;-60
2022/08/26 08:34:23;;;;;;;32.25;13.43;;;;;;;29.09;92.30;99695.16;1580217;89;21218;-63
2022/08/26 08:37:12;;;;;;;31.12;11.90;;;;;;;29.17;90.82;99692.34;1593694;89;21091;-63
2022/08/26 08:39:42;;;;;;;32.73;10.80;;;;;;;29.19;90.14;99697.02;1669455;84;21602;-60
2022/08/26 08:42:47;;;;;;;37.63;11.18;;;;;;;29.44;90.16;99696.60;1670770;84;21116;-61
2022/08/26 08:45:21;;;;;;;28.05;9.08;;;;;;;29.57;89.28;99699.36;1691395;83;21088;-62
2022/08/26 08:47:55;;;;;;;21.30;8.00;;;;;;;29.58;87.27;99694.33;1693756;83;21047;-63
2022/08/26 08:50:42;;;;;;;19.67;7.08;;;;;;;29.64;88.12;99693.56;1696231;83;21613;-64
2022/08/26 08:53:33;;;;;;;30.32;7.28;;;;;;;29.77;86.52;99690.63;1695340;83;21101;-65
2022/08/26 08:56:20;;;;;;;19.37;6.70;;;;;;;29.75;86.88;99687.33;1694146;83;21072;-63
2022/08/26 08:59:04;;;;;;;25.20;7.10;;;;;;;29.74;84.22;99682.95;1698176;82;21380;-64
2022/08/26 09:01:46;;;;;;;50.48;8.05;;;;;;;29.49;83.64;99687.41;1697318;82;21037;-65
2022/08/26 09:04:34;;;;;;;20.82;6.72;;;;;;;29.43;84.05;99694.92;1697258;82;20985;-63
2022/08/26 09:07:03;;;;;;;18.23;6.00;;;;;;;29.47;83.28;99694.03;1692222;83;21226;-64
2022/08/26 09:12:33;;;;;;;21.40;7.55;;;;;;;29.35;81.62;99691.03;1596444;87;21213;-66
2022/08/26 09:15:09;;;;;;;22.15;7.78;;;;;;;29.07;80.47;99696.37;1611028;87;21016;-63
2022/08/26 09:18:02;;;;;;;14.10;6.33;;;;;;;28.96;80.19;99701.23;1610771;87;21068;-62
2022/08/26 09:21:06;;;;;;;18.15;7.03;;;;;;;28.88;78.55;99700.53;1613827;88;21025;-63
2022/08/26 09:23:37;;;;;;;23.60;7.25;;;;;;;28.77;78.58;99702.70;1613580;87;21589;-63
2022/08/26 09:26:40;;;;;;;18.07;7.10;;;;;;;28.59;78.34;99694.22;1615037;87;21141;-63
2022/08/26 09:29:14;;;;;;;20.12;6.60;;;;;;;28.54;78.54;99693.98;1604004;86;27534;-63
2022/08/26 09:31:44;;;;;;;25.68;7.00;;;;;;;28.56;78.20;99691.92;1613681;87;21664;-63
2022/08/26 09:34:31;;;;;;;20.05;6.53;;;;;;;28.42;76.73;99695.45;1615583;88;21554;-63
2022/08/26 09:37:28;;;;;;;22.45;7.17;;;;;;;28.14;76.69;99695.31;1682888;83;21005;-62
2022/08/26 09:40:00;;;;;;;27.05;6.78;;;;;;;28.07;76.52;99688.53;1673635;83;21216;-63
2022/08/26 09:42:27;;;;;;;25.50;6.50;;;;;;;28.19;77.02;99692.39;1672840;83;21080;-64
2022/08/26 09:45:04;;;;;;;;;;;;;;;28.38;76.07;99688.80;1686896;83;21051;-62
2022/08/26 09:47:42;;;;;;;23.25;6.45;;;;;;;28.51;75.40;99683.59;1683771;83;20109;-63
2022/08/26 09:50:31;;;;;;;18.80;6.05;;;;;;;28.75;74.60;99677.87;1684319;83;20986;-63
2022/08/26 09:53:21;;;;;;;20.95;6.42;;;;;;;28.98;75.84;99678.18;1684062;83;21548;-64
2022/08/26 09:55:53;;;;;;;28.62;7.58;;;;;;;29.25;74.51;99680.63;1686669;84;21129;-65
2022/08/26 09:58:43;;;;;;;18.52;6.33;;;;;;;29.20;73.55;99678.51;1662328;85;21781;-64
2022/08/26 10:01:25;;;;;;;22.48;6.72;;;;;;;29.21;73.85;99682.88;1657876;84;21708;-63
2022/08/26 10:03:52;;;;;;;18.45;7.00;;;;;;;29.24;72.42;99677.62;1653263;85;21102;-64
2022/08/26 10:06:23;;;;;;;39.10;7.33;;;;;;;29.18;71.53;99669.83;1628336;85;21113;-63
2022/08/26 10:08:58;;;;;;;16.97;6.80;;;;;;;29.27;72.17;99669.66;1664051;85;20957;-64
2022/08/26 10:11:45;;;;;;;26.60;6.95;;;;;;;29.56;72.20;99672.16;1659272;84;21046;-62
2022/08/26 10:14:35;;;;;;;24.10;7.58;;;;;;;29.75;71.81;99665.80;1657374;85;21042;-63
2022/08/26 10:17:35;;;;;;;17.52;6.33;;;;;;;29.82;70.98;99662.61;1650729;86;21620;-64
2022/08/26 10:20:24;;;;;;;24.27;7.28;;;;;;;30.00;70.97;99671.00;1652972;85;21287;-64
2022/08/26 10:23:08;;;;;;;20.80;6.67;;;;;;;30.28;71.06;99667.41;1656955;85;21581;-63
2022/08/26 10:25:49;;;;;;;22.27;7.37;;;;;;;30.37;69.81;99663.50;1610240;86;21103;-63
2022/08/26 10:28:44;;;;;;;23.70;7.20;;;;;;;30.16;69.18;99663.59;1633293;83;66680;-63
2022/08/26 10:31:37;;;;;;;24.90;6.97;;;;;;;30.11;68.90;99659.66;1629593;86;21009;-63
2022/08/26 10:34:07;;;;;;;26.97;7.87;;;;;;;30.30;69.08;99658.10;1626607;86;22055;-65
2022/08/26 10:39:38;;;;;;;25.68;7.30;;;;;;;30.38;68.44;99654.38;1641475;85;21673;-64
2022/08/26 10:42:25;;;;;;;19.80;5.15;;;;;;;30.39;67.90;99650.67;1664249;85;20993;-64
2022/08/26 10:44:56;;;;;;;17.42;5.05;;;;;;;30.45;67.23;99656.58;1689078;83;21047;-63
2022/08/26 10:47:50;;;;;;;18.55;6.28;;;;;;;30.63;67.01;99655.16;1649848;83;22011;-63
2022/08/26 10:50:18;;;;;;;16.60;4.75;;;;;;;30.70;66.28;99655.50;1699204;83;21298;-63
2022/08/26 10:53:06;;;;;;;25.02;3.90;;;;;;;30.68;64.82;99655.39;1691956;83;21116;-63
2022/08/26 10:55:44;;;;;;;17.60;4.62;;;;;;;30.48;64.34;99652.66;1661051;85;21057;-64
2022/08/26 10:58:19;;;;;;;12.28;4.25;;;;;;;30.47;64.07;99650.48;1664402;85;21024;-65
2022/08/26 11:04:23;;;;;;;17.17;4.70;;;;;;;30.41;63.28;99651.80;1657822;85;21687;-62
2022/08/26 11:07:46;;;;;;;21.15;5.17;;;;;;;30.54;62.88;99651.31;1686684;83;21061;-62
2022/08/26 11:10:24;;;;;;;12.10;3.92;;;;;;;30.76;62.53;99651.16;1664693;84;21021;-62
2022/08/26 11:13:05;;;;;;;13.55;4.47;;;;;;;30.85;61.82;99646.42;1667697;85;21048;-63
2022/08/26 11:15:41;;;;;;;13.83;4.97;;;;;;;30.83;61.32;99641.74;1662761;84;21338;-63
2022/08/26 11:18:32;;;;;;;25.95;5.45;;;;;;;30.84;61.44;99630.77;1667097;84;21095;-63
2022/08/26 11:21:00;;;;;;;15.00;4.47;;;;;;;30.96;61.34;99630.45;1667786;84;21901;-62
2022/08/26 11:23:36;;;;;;;12.45;4.10;;;;;;;31.02;60.71;99626.63;1687050;83;21046;-62
2022/08/26 11:29:00;;;;;;;16.97;4.70;;;;;;;30.96;60.02;99630.45;1731371;81;35190;-62
2022/08/26 11:31:32;;;;;;;12.95;4.37;;;;;;;30.98;60.04;99625.69;1727390;81;21654;-62
2022/08/26 11:34:07;;;;;;;13.30;4.33;;;;;;;31.06;59.55;99629.20;1732873;81;21009;-62
2022/08/26 11:36:48;;;;;;;17.82;4.62;;;;;;;31.12;59.28;99631.09;1736571;81;21625;-63
2022/08/26 11:39:47;;;;;;;11.65;4.83;;;;;;;31.16;58.84;99626.92;1726657;81;21001;-61
2022/08/26 11:42:37;;;;;;;19.65;4.97;;;;;;;31.34;59.07;99624.42;1698499;83;21545;-61
2022/08/26 11:45:38;;;;;;;15.18;4.92;;;;;;;31.30;58.27;99628.56;1700986;83;21065;-62
2022/08/26 11:48:29;;;;;;;10.30;3.85;;;;;;;31.21;57.91;99627.13;1704839;83;21160;-62
2022/08/26 11:51:13;;;;;;;9.78;3.55;;;;;;;31.08;56.63;99624.44;1701712;83;21076;-63
2022/08/26 11:53:46;;;;;;;20.85;3.77;;;;;;;30.88;56.09;99617.17;1700906;83;21097;-62
2022/08/26 11:56:33;;;;;;;18.65;4.50;;;;;;;30.78;55.90;99616.72;1699825;83;21141;-62
2022/08/26 11:59:32;;;;;;;15.43;4.10;;;;;;;30.73;55.00;99619.23;1820542;77;22807;-62
2022/08/26 12:01:59;;;;;;;17.90;4.72;;;;;;;30.72;55.27;99614.85;1794524;78;21045;-63
2022/08/26 12:04:32;;;;;;;16.17;4.17;;;;;;;30.93;55.64;99620.09;1794415;78;21171;-63
2022/08/26 12:07:01;;;;;;;16.15;3.58;;;;;;;31.01;54.46;99620.93;1793325;78;20975;-62
2022/08/26 12:09:37;;;;;;;25.25;6.53;;;;;;;30.91;54.41;99616.76;1794378;78;20989;-62